Time;durP1;ratioP1;P1;durP2;ratioP2;P2;SDS_P1;SDS_P2;PMS_P1;PMS_P2;Temp;Humidity;BMP_temperature;BMP_pressure;BME280_temperature;BME280_humidity;BME280_pressure;Samples;Min_cycle;Max_cycle;Signal;HPM_P1;HPM_P2
2021/03/23 00:01:09;;;;;;;0.30;0.30;;;;;;;0.02;73.60;92717.75;5027669;28;20037;-44
2021/03/23 00:03:55;;;;;;;0.45;0.45;;;;;;;-0.05;72.72;92717.03;5027970;28;20409;-54
2021/03/23 00:06:23;;;;;;;0.30;0.30;;;;;;;-0.11;72.68;92710.88;5041301;28;20021;-54
2021/03/23 00:09:00;;;;;;;0.47;0.47;;;;;;;-0.07;72.62;92711.38;5050932;28;20101;-57
2021/03/23 00:11:40;;;;;;;0.95;0.95;;;;;;;-0.18;72.34;92719.53;5051190;28;20100;-46
2021/03/23 00:14:08;;;;;;;0.20;0.20;;;;;;;0.01;72.35;92717.00;5050013;28;20025;-48
2021/03/23 00:16:37;;;;;;;0.30;0.30;;;;;;;-0.11;72.66;92719.00;5040315;28;20033;-47
2021/03/23 00:19:02;;;;;;;0.20;0.20;;;;;;;-0.38;73.22;92717.09;5039447;28;20560;-47
2021/03/23 00:21:28;;;;;;;0.20;0.20;;;;;;;-0.18;73.15;92724.97;5041264;28;20085;-47
2021/03/23 00:23:54;;;;;;;0.30;0.30;;;;;;;-0.12;73.10;92725.69;5040222;28;20077;-50
2021/03/23 00:26:21;;;;;;;0.50;0.50;;;;;;;-0.01;71.89;92720.22;5039557;28;20021;-45
2021/03/23 00:28:47;;;;;;;0.30;0.30;;;;;;;-0.01;72.01;92720.22;5041154;28;20854;-50
2021/03/23 00:31:24;;;;;;;0.20;0.20;;;;;;;-0.13;72.82;92718.03;5040033;28;20508;-50
2021/03/23 00:33:49;;;;;;;0.30;0.30;;;;;;;-0.03;72.60;92727.38;5039454;28;20568;-47
2021/03/23 00:36:23;;;;;;;0.50;0.50;;;;;;;-0.11;72.31;92721.72;5040440;28;20093;-48
2021/03/23 00:38:50;;;;;;;0.20;0.20;;;;;;;-0.03;71.71;92725.41;5037235;28;20050;-44
2021/03/23 00:41:16;;;;;;;0.20;0.20;;;;;;;-0.09;72.50;92719.25;5040345;28;20382;-44
2021/03/23 00:43:41;;;;;;;0.30;0.30;;;;;;;-0.12;72.53;92728.38;5039063;28;20057;-46
2021/03/23 00:46:07;;;;;;;0.30;0.30;;;;;;;-0.05;71.84;92733.31;5041279;28;20072;-47
2021/03/23 00:48:33;;;;;;;0.40;0.40;;;;;;;-0.06;72.40;92733.78;5039683;28;20040;-46
2021/03/23 00:50:58;;;;;;;0.38;0.38;;;;;;;-0.02;73.26;92739.69;5039730;28;20029;-50
2021/03/23 00:53:24;;;;;;;0.43;0.43;;;;;;;-0.14;73.60;92735.53;5040876;28;20485;-50
2021/03/23 00:55:50;;;;;;;0.40;0.40;;;;;;;-0.12;73.43;92733.06;5039056;28;20025;-49
2021/03/23 00:58:16;;;;;;;0.40;0.40;;;;;;;-0.01;73.22;92736.50;5039579;28;20048;-48
2021/03/23 01:00:41;;;;;;;0.20;0.20;;;;;;;0.07;73.36;92741.41;5040761;28;20029;-46
2021/03/23 01:03:07;;;;;;;0.32;0.32;;;;;;;0.12;72.73;92741.38;5038783;28;20417;-47
2021/03/23 01:05:34;;;;;;;0.82;0.60;;;;;;;0.18;72.42;92741.34;5044435;28;20489;-46
2021/03/23 01:07:59;;;;;;;0.20;0.20;;;;;;;0.11;72.73;92731.03;5050196;28;20449;-46
2021/03/23 01:10:28;;;;;;;0.20;0.20;;;;;;;0.17;71.92;92732.50;5049763;28;20120;-46
2021/03/23 01:12:53;;;;;;;0.30;0.30;;;;;;;0.12;71.62;92746.81;5050114;28;20032;-47
2021/03/23 01:15:22;;;;;;;0.20;0.20;;;;;;;0.06;72.12;92750.78;5049628;28;20033;-49
2021/03/23 01:17:47;;;;;;;0.40;0.40;;;;;;;-0.06;73.35;92725.66;5049476;28;20433;-54
2021/03/23 01:20:15;;;;;;;0.20;0.20;;;;;;;0.02;73.09;92747.59;5049831;28;20111;-54
2021/03/23 01:22:40;;;;;;;0.30;0.30;;;;;;;0.04;73.22;92748.56;5049961;28;20053;-53
2021/03/23 01:25:07;;;;;;;0.38;0.38;;;;;;;0.12;73.23;92746.06;5043789;28;20057;-49
2021/03/23 01:27:32;;;;;;;0.20;0.20;;;;;;;0.12;73.08;92738.69;5038691;28;20025;-53
2021/03/23 01:29:57;;;;;;;0.50;0.50;;;;;;;0.03;73.38;92744.38;5038111;28;20067;-53
2021/03/23 01:32:23;;;;;;;0.20;0.20;;;;;;;0.05;73.18;92738.44;5040354;28;20055;-51
2021/03/23 01:34:49;;;;;;;0.30;0.30;;;;;;;0.06;73.15;92748.06;5038173;28;20040;-51
2021/03/23 01:37:16;;;;;;;0.20;0.20;;;;;;;0.02;72.98;92742.91;5039778;28;20046;-53
2021/03/23 01:39:42;;;;;;;0.25;0.25;;;;;;;-0.01;72.86;92750.06;5039666;28;20500;-54
2021/03/23 01:42:09;;;;;;;0.65;0.65;;;;;;;-0.07;74.04;92746.63;5038348;28;20025;-49
2021/03/23 01:44:34;;;;;;;0.20;0.20;;;;;;;-0.07;74.42;92748.59;5039634;28;20475;-53
2021/03/23 01:47:00;;;;;;;0.30;0.30;;;;;;;-0.11;73.71;92748.84;5039434;28;20112;-50
2021/03/23 01:49:45;;;;;;;0.30;0.30;;;;;;;-0.09;74.28;92746.38;5040549;28;20031;-51
2021/03/23 01:52:16;;;;;;;0.20;0.20;;;;;;;-0.13;74.00;92751.31;5036847;28;20416;-51
2021/03/23 01:55:03;;;;;;;0.20;0.20;;;;;;;-0.08;74.22;92757.97;5037313;28;20025;-52
2021/03/23 01:57:29;;;;;;;0.40;0.40;;;;;;;-0.07;74.23;92754.78;5039840;28;20048;-53
2021/03/23 01:59:56;;;;;;;0.60;0.60;;;;;;;-0.03;73.96;92759.94;5038447;28;20029;-49
2021/03/23 02:02:24;;;;;;;0.50;0.50;;;;;;;-0.01;74.13;92750.06;5037193;28;20105;-51
2021/03/23 02:04:49;;;;;;;0.20;0.20;;;;;;;0.04;73.51;92762.16;5039820;28;20029;-51
2021/03/23 02:07:15;;;;;;;0.30;0.30;;;;;;;0.07;73.70;92757.69;5034476;28;20070;-51
2021/03/23 02:09:40;;;;;;;0.70;0.70;;;;;;;0.05;73.37;92752.75;5029102;28;20031;-53
2021/03/23 02:12:09;;;;;;;0.20;0.20;;;;;;;-0.18;74.04;92765.66;5029158;28;20033;-54
2021/03/23 02:14:43;;;;;;;0.80;0.80;;;;;;;-0.11;74.65;92756.97;5041795;28;20048;-53
2021/03/23 02:17:17;;;;;;;0.30;0.30;;;;;;;0.00;74.00;92767.09;5049060;28;20032;-54
2021/03/23 02:19:43;;;;;;;0.28;0.28;;;;;;;-0.04;74.26;92763.88;5049176;28;20029;-53
2021/03/23 02:22:13;;;;;;;0.50;0.50;;;;;;;-0.02;73.78;92773.00;5048877;28;20497;-51
2021/03/23 02:24:39;;;;;;;0.30;0.30;;;;;;;0.06;73.10;92773.25;5048916;28;20043;-50
2021/03/23 02:27:04;;;;;;;0.40;0.40;;;;;;;0.04;73.71;92780.41;5048419;28;20120;-53
2021/03/23 02:29:30;;;;;;;0.68;0.68;;;;;;;0.07;73.57;92776.66;5048014;28;20077;-50
2021/03/23 02:31:56;;;;;;;0.40;0.40;;;;;;;0.00;74.19;92770.53;5048898;28;20112;-52
2021/03/23 02:34:23;;;;;;;0.20;0.20;;;;;;;-0.09;74.61;92773.50;5048791;27;20390;-52
2021/03/23 02:36:50;;;;;;;0.55;0.55;;;;;;;-0.08;74.71;92764.13;5048878;28;20052;-53
2021/03/23 02:39:28;;;;;;;0.20;0.20;;;;;;;0.04;74.54;92772.25;5047567;28;20429;-51
2021/03/23 02:41:55;;;;;;;0.30;0.30;;;;;;;0.14;73.72;92776.16;5049022;28;20036;-50
2021/03/23 02:44:20;;;;;;;0.47;0.47;;;;;;;0.13;73.17;92772.72;5045506;28;20094;-49
2021/03/23 02:46:46;;;;;;;0.80;0.80;;;;;;;0.02;72.90;92769.31;5028757;28;20089;-51
2021/03/23 02:49:11;;;;;;;0.38;0.38;;;;;;;0.06;72.09;92772.50;5028538;28;20030;-54
2021/03/23 02:51:37;;;;;;;0.60;0.60;;;;;;;0.10;72.03;92778.41;5028924;28;20031;-52
2021/03/23 02:54:03;;;;;;;0.20;0.20;;;;;;;0.01;71.94;92768.56;5028626;28;20599;-54
2021/03/23 02:56:28;;;;;;;0.30;0.30;;;;;;;-0.05;72.56;92774.00;5028718;28;20025;-55
2021/03/23 02:58:54;;;;;;;0.30;0.30;;;;;;;0.06;72.58;92775.22;5028302;28;20685;-52
2021/03/23 03:01:19;;;;;;;0.30;0.30;;;;;;;0.04;72.10;92781.16;5028512;28;20086;-52
2021/03/23 03:03:44;;;;;;;0.20;0.20;;;;;;;-0.09;72.75;92778.22;5028478;28;20029;-52
2021/03/23 03:06:11;;;;;;;0.30;0.30;;;;;;;-0.05;72.67;92774.00;5027024;28;20383;-50
2021/03/23 03:08:37;;;;;;;0.20;0.20;;;;;;;-0.08;73.26;92790.53;5028595;28;20022;-49
2021/03/23 03:11:03;;;;;;;0.40;0.40;;;;;;;-0.12;73.36;92788.06;5036298;28;20120;-46
2021/03/23 03:13:28;;;;;;;0.20;0.20;;;;;;;-0.09;73.53;92781.66;5048318;28;20029;-57
2021/03/23 03:15:55;;;;;;;0.30;0.30;;;;;;;-0.16;73.74;92790.31;5048193;28;20035;-48
2021/03/23 03:18:21;;;;;;;0.20;0.20;;;;;;;-0.14;73.23;92782.41;5048118;28;20028;-47
2021/03/23 03:20:47;;;;;;;0.20;0.20;;;;;;;-0.17;73.47;92783.38;5047961;28;20466;-49
2021/03/23 03:23:14;;;;;;;0.95;0.90;;;;;;;-0.19;73.38;92794.00;5048018;28;20047;-46
2021/03/23 03:25:39;;;;;;;0.52;0.52;;;;;;;-0.23;72.80;92793.53;5044724;28;20060;-47
2021/03/23 03:28:07;;;;;;;0.77;0.77;;;;;;;-0.13;73.37;92797.44;5036794;28;20060;-45
2021/03/23 03:30:34;;;;;;;0.30;0.30;;;;;;;-0.14;73.61;92793.25;5045014;28;20114;-46
2021/03/23 03:33:00;;;;;;;0.20;0.20;;;;;;;-0.09;72.65;92802.63;5047941;28;20025;-50
2021/03/23 03:35:29;;;;;;;0.43;0.43;;;;;;;-0.09;71.88;92795.22;5047524;28;20040;-50
2021/03/23 03:37:55;;;;;;;1.38;0.90;;;;;;;-0.11;72.04;92800.38;5046715;28;20033;-48
2021/03/23 03:40:24;;;;;;;0.20;0.20;;;;;;;0.02;72.07;92799.91;5047330;28;20041;-49
2021/03/23 03:42:49;;;;;;;0.40;0.40;;;;;;;-0.02;71.84;92805.56;5047763;28;20496;-48
2021/03/23 03:45:15;;;;;;;5.45;1.95;;;;;;;-0.01;71.16;92809.03;5047884;28;20025;-46
2021/03/23 03:47:40;;;;;;;0.20;0.20;;;;;;;0.05;71.36;92811.72;5047616;28;20025;-46
2021/03/23 03:50:07;;;;;;;0.20;0.20;;;;;;;-0.05;71.66;92805.81;5047742;28;20020;-46
2021/03/23 03:52:33;;;;;;;0.68;0.68;;;;;;;-0.03;71.24;92819.63;5047562;28;20029;-45
2021/03/23 03:54:58;;;;;;;0.30;0.30;;;;;;;0.02;70.98;92813.47;5047597;28;20054;-46
2021/03/23 03:57:24;;;;;;;1.13;1.13;;;;;;;0.02;71.11;92818.91;5047567;28;20033;-48
2021/03/23 03:59:50;;;;;;;1.02;1.02;;;;;;;0.09;71.62;92820.38;5047495;28;20045;-45
2021/03/23 04:02:16;;;;;;;0.30;0.30;;;;;;;0.10;71.92;92828.00;5036377;28;20048;-48
2021/03/23 04:04:44;;;;;;;1.13;0.75;;;;;;;0.15;71.08;92824.53;5027724;28;20037;-45
2021/03/23 04:07:09;;;;;;;0.90;0.57;;;;;;;-0.02;71.19;92815.66;5027565;28;20561;-46
2021/03/23 04:09:35;;;;;;;0.20;0.20;;;;;;;0.24;71.50;92826.97;5027622;28;20032;-45
2021/03/23 04:12:01;;;;;;;2.13;0.68;;;;;;;0.33;70.82;92824.00;5027461;28;20030;-47
2021/03/23 04:14:26;;;;;;;5.10;1.17;;;;;;;0.27;70.69;92823.28;5027417;28;20022;-45
2021/03/23 04:16:51;;;;;;;0.57;0.57;;;;;;;0.18;71.38;92833.66;5027426;28;20070;-45
2021/03/23 04:19:17;;;;;;;0.30;0.30;;;;;;;0.13;71.69;92837.84;5045048;28;20018;-47
2021/03/23 04:21:42;;;;;;;0.30;0.30;;;;;;;0.17;72.25;92840.31;5047271;28;20025;-44
2021/03/23 04:24:08;;;;;;;0.38;0.38;;;;;;;0.23;72.25;92841.03;5031574;28;20092;-44
2021/03/23 04:26:33;;;;;;;0.30;0.30;;;;;;;0.19;70.87;92841.31;5027642;28;20045;-45
2021/03/23 04:28:59;;;;;;;0.30;0.30;;;;;;;0.14;71.48;92839.34;5027223;28;20025;-46
2021/03/23 04:31:43;;;;;;;0.22;0.22;;;;;;;0.21;71.89;92840.81;5038008;28;20036;-50
2021/03/23 04:34:10;;;;;;;0.63;0.63;;;;;;;0.19;71.32;92846.75;5047068;28;20568;-46
2021/03/23 04:36:36;;;;;;;0.50;0.50;;;;;;;-0.06;72.99;92851.22;5047190;28;20031;-44
2021/03/23 04:39:08;;;;;;;0.20;0.20;;;;;;;-0.18;73.71;92851.72;5047151;28;20025;-45
2021/03/23 04:41:34;;;;;;;0.30;0.30;;;;;;;-0.06;73.33;92853.91;5047153;28;20038;-45
2021/03/23 04:43:59;;;;;;;0.20;0.20;;;;;;;0.11;72.83;92858.59;5047103;28;20029;-47
2021/03/23 04:46:28;;;;;;;0.20;0.20;;;;;;;0.31;71.95;92863.72;5047125;28;20092;-46
2021/03/23 04:48:55;;;;;;;0.85;0.77;;;;;;;0.36;71.90;92861.03;5046883;28;20112;-48
2021/03/23 04:51:22;;;;;;;0.40;0.40;;;;;;;0.31;71.54;92869.16;5048074;28;20042;-49
2021/03/23 04:53:48;;;;;;;0.95;0.85;;;;;;;0.33;71.20;92863.97;5050282;28;20482;-51
2021/03/23 04:56:31;;;;;;;1.40;1.40;;;;;;;0.37;71.31;92873.34;5050292;28;20055;-48
2021/03/23 04:58:56;;;;;;;0.60;0.60;;;;;;;0.51;70.66;92871.59;5050029;28;20045;-49
2021/03/23 05:01:22;;;;;;;0.30;0.30;;;;;;;0.30;71.02;92878.56;5050204;28;20044;-49
2021/03/23 05:04:01;;;;;;;0.63;0.63;;;;;;;0.31;70.58;92863.72;5050248;28;20089;-47
2021/03/23 05:06:27;;;;;;;3.88;3.60;;;;;;;0.48;71.30;92888.88;5048945;28;20032;-48
2021/03/23 05:08:53;;;;;;;2.03;1.85;;;;;;;0.57;70.14;92875.75;5047595;28;20033;-47
2021/03/23 05:11:27;;;;;;;1.00;1.00;;;;;;;0.58;70.29;92877.25;5030162;28;20033;-50
2021/03/23 05:13:52;;;;;;;0.57;0.57;;;;;;;0.61;69.91;92883.66;5030212;28;20045;-48
2021/03/23 05:16:18;;;;;;;0.30;0.30;;;;;;;0.57;70.63;92894.78;5040176;28;20484;-47
2021/03/23 05:18:43;;;;;;;0.50;0.50;;;;;;;0.68;70.65;92889.31;5034014;28;20497;-48
2021/03/23 05:21:09;;;;;;;0.60;0.60;;;;;;;0.68;69.95;92891.28;5029993;28;20026;-47
2021/03/23 05:23:35;;;;;;;1.30;1.30;;;;;;;0.82;69.83;92890.28;5039704;28;20026;-48
2021/03/23 05:26:01;;;;;;;0.30;0.30;;;;;;;0.82;69.56;92886.81;5038257;28;20498;-47
2021/03/23 05:28:26;;;;;;;0.40;0.40;;;;;;;1.03;68.61;92882.50;5040469;28;20070;-48
2021/03/23 05:30:52;;;;;;;0.40;0.40;;;;;;;1.10;68.50;92884.72;5039212;28;20538;-49
2021/03/23 05:33:19;;;;;;;0.43;0.43;;;;;;;1.15;67.64;92873.09;5038773;28;20032;-53
2021/03/23 05:35:45;;;;;;;0.52;0.52;;;;;;;1.08;67.24;92868.16;5040870;28;20021;-49
2021/03/23 05:38:10;;;;;;;0.68;0.68;;;;;;;1.18;66.91;92880.97;5039937;28;20043;-45
2021/03/23 05:40:48;;;;;;;0.35;0.35;;;;;;;1.27;66.71;92888.09;5039502;28;20074;-49
2021/03/23 05:43:28;;;;;;;0.77;0.50;;;;;;;1.34;66.07;92888.28;5038894;28;20036;-49
2021/03/23 05:46:08;;;;;;;0.52;0.52;;;;;;;1.51;66.17;92888.94;5040656;28;20040;-50
2021/03/23 05:48:35;;;;;;;0.40;0.40;;;;;;;1.53;65.77;92889.19;5037570;28;20076;-50
2021/03/23 05:51:09;;;;;;;0.30;0.30;;;;;;;1.52;65.92;92887.69;5037923;28;20024;-50
2021/03/23 05:53:42;;;;;;;0.30;0.30;;;;;;;1.44;65.45;92891.44;5031178;28;20044;-48
2021/03/23 05:56:08;;;;;;;1.58;0.45;;;;;;;1.49;65.38;92899.56;5046795;28;20028;-46
2021/03/23 05:58:38;;;;;;;0.20;0.20;;;;;;;1.28;65.25;92884.84;5040302;28;20054;-47
2021/03/23 06:01:18;;;;;;;0.75;0.75;;;;;;;1.54;65.27;92909.69;5041930;28;20488;-46
2021/03/23 06:03:59;;;;;;;0.57;0.57;;;;;;;1.70;63.96;92904.66;5046123;28;20037;-47
2021/03/23 06:06:41;;;;;;;0.60;0.60;;;;;;;1.73;65.25;92893.50;5046530;28;20033;-43
2021/03/23 06:09:15;;;;;;;0.20;0.20;;;;;;;1.77;64.63;92918.47;5028377;28;20082;-50
2021/03/23 06:11:43;;;;;;;0.28;0.28;;;;;;;1.80;64.34;92922.16;5046702;28;20031;-51
2021/03/23 06:14:34;;;;;;;0.30;0.30;;;;;;;1.94;63.95;92924.53;5039388;28;20033;-51
2021/03/23 06:17:14;;;;;;;0.32;0.32;;;;;;;1.92;63.91;92927.03;5038768;28;20029;-49
2021/03/23 06:20:19;;;;;;;0.30;0.30;;;;;;;1.80;64.66;92936.50;5033015;28;20505;-51
2021/03/23 06:22:50;;;;;;;0.22;0.22;;;;;;;2.04;64.24;92927.66;5041225;28;20036;-50
2021/03/23 06:25:25;;;;;;;0.40;0.40;;;;;;;1.98;63.26;92925.00;5029653;28;20047;-50
2021/03/23 06:27:54;;;;;;;0.90;0.88;;;;;;;2.05;64.01;92923.72;5027528;28;20058;-49
2021/03/23 06:30:29;;;;;;;0.20;0.20;;;;;;;1.98;63.07;92930.44;5027419;28;20033;-48
2021/03/23 06:32:55;;;;;;;1.05;0.77;;;;;;;2.14;63.76;92923.41;5027909;28;20039;-49
2021/03/23 06:35:28;;;;;;;0.63;0.57;;;;;;;2.24;63.40;92932.72;5027547;28;20034;-52
2021/03/23 06:37:54;;;;;;;0.20;0.20;;;;;;;1.90;62.79;92934.97;5027227;28;20033;-51
2021/03/23 06:40:27;;;;;;;0.20;0.20;;;;;;;1.82;62.79;92928.56;5029879;28;20029;-48
2021/03/23 06:42:55;;;;;;;0.20;0.20;;;;;;;1.84;63.06;92938.97;5027388;28;20068;-51
2021/03/23 06:45:29;;;;;;;0.20;0.20;;;;;;;1.95;63.91;92928.00;5027197;28;20082;-47
2021/03/23 06:47:58;;;;;;;0.40;0.40;;;;;;;1.78;64.31;92938.22;5027041;28;20045;-49
2021/03/23 06:50:24;;;;;;;0.85;0.85;;;;;;;2.01;64.35;92947.75;5033910;28;20074;-51
2021/03/23 06:53:09;;;;;;;0.20;0.20;;;;;;;2.20;63.76;92938.44;5035013;28;20425;-49
2021/03/23 06:55:36;;;;;;;0.20;0.20;;;;;;;2.22;64.87;92954.28;5027531;28;20025;-50
2021/03/23 06:58:18;;;;;;;0.30;0.30;;;;;;;2.35;64.05;92956.41;5026598;28;20506;-47
2021/03/23 07:00:44;;;;;;;0.40;0.40;;;;;;;2.54;63.92;92949.78;5041177;28;20035;-49
2021/03/23 07:03:13;;;;;;;0.40;0.40;;;;;;;2.60;64.60;92953.19;5045250;28;20025;-46
2021/03/23 07:05:41;;;;;;;0.43;0.43;;;;;;;2.54;62.31;92943.59;5035408;28;20033;-48
2021/03/23 07:08:07;;;;;;;1.10;1.05;;;;;;;2.69;63.35;92961.06;5040271;28;20423;-45
2021/03/23 07:10:51;;;;;;;2.65;0.90;;;;;;;3.01;61.44;92961.97;5038847;28;20037;-45
2021/03/23 07:13:25;;;;;;;1.15;1.15;;;;;;;3.33;61.08;92959.41;5032200;28;20409;-45
2021/03/23 07:15:59;;;;;;;0.40;0.40;;;;;;;3.77;59.50;92961.56;5038028;28;20054;-46
2021/03/23 07:18:28;;;;;;;0.50;0.50;;;;;;;3.98;59.59;92961.06;5036869;28;20037;-48
2021/03/23 07:20:58;;;;;;;0.38;0.38;;;;;;;4.06;59.77;92951.75;5035414;28;20093;-49
2021/03/23 07:23:27;;;;;;;4.15;0.50;;;;;;;4.22;58.89;92969.88;5034218;28;20041;-51
2021/03/23 07:25:53;;;;;;;0.77;0.77;;;;;;;4.34;58.15;92975.91;5036126;28;20084;-50
2021/03/23 07:28:34;;;;;;;0.70;0.70;;;;;;;4.47;58.50;92971.25;5036229;28;20042;-47
2021/03/23 07:31:07;;;;;;;1.05;1.05;;;;;;;4.53;58.27;92960.22;5037144;28;20035;-49
2021/03/23 07:34:10;;;;;;;1.85;1.25;;;;;;;4.70;57.86;92968.16;5036025;28;20055;-47
2021/03/23 07:36:35;;;;;;;0.65;0.65;;;;;;;4.90;56.78;92976.50;5026465;28;20032;-49
2021/03/23 07:39:27;;;;;;;0.30;0.30;;;;;;;5.05;56.45;92970.50;5026535;28;20037;-48
2021/03/23 07:41:58;;;;;;;0.20;0.20;;;;;;;4.92;55.05;92967.75;5035187;28;20029;-47
2021/03/23 07:44:38;;;;;;;0.80;0.80;;;;;;;4.98;56.44;92977.34;5037494;28;20736;-52
2021/03/23 07:47:25;;;;;;;0.43;0.43;;;;;;;4.87;56.45;92974.81;5037903;28;20861;-52
2021/03/23 07:50:02;;;;;;;0.75;0.75;;;;;;;4.91;57.13;92977.97;5031774;28;20036;-51
2021/03/23 07:52:31;;;;;;;0.30;0.30;;;;;;;5.00;58.09;92974.81;5026500;28;20049;-46
2021/03/23 07:54:59;;;;;;;1.00;1.00;;;;;;;4.88;57.64;92981.00;5024985;28;20062;-51
2021/03/23 07:57:34;;;;;;;0.65;0.63;;;;;;;4.99;57.35;92978.84;5025193;28;21212;-49
2021/03/23 08:00:12;;;;;;;0.82;0.57;;;;;;;4.88;57.40;92970.06;5027592;28;20062;-46
2021/03/23 08:02:58;;;;;;;0.45;0.45;;;;;;;4.80;58.75;92974.69;5034838;28;20036;-49
2021/03/23 08:05:39;;;;;;;0.20;0.20;;;;;;;4.88;58.14;92983.75;5035368;28;20068;-49
2021/03/23 08:08:17;;;;;;;0.65;0.65;;;;;;;4.67;59.04;92983.59;5036693;28;20029;-49
2021/03/23 08:10:57;;;;;;;1.70;1.65;;;;;;;4.74;58.65;92985.00;5042268;28;20576;-51
2021/03/23 08:13:39;;;;;;;1.05;1.00;;;;;;;4.76;58.07;92985.94;5060599;28;20052;-52
2021/03/23 08:16:12;;;;;;;0.52;0.43;;;;;;;4.87;58.00;92979.56;5043163;28;20048;-49
2021/03/23 08:18:53;;;;;;;0.20;0.20;;;;;;;5.13;57.72;92980.31;5044566;28;20093;-49
2021/03/23 08:21:31;;;;;;;1.83;1.73;;;;;;;5.48;56.34;92984.63;5045341;28;20032;-50
2021/03/23 08:24:02;;;;;;;0.70;0.70;;;;;;;5.98;55.07;92967.22;5039612;28;20029;-48
2021/03/23 08:26:53;;;;;;;1.90;1.77;;;;;;;7.08;54.45;92966.63;5029086;28;20033;-48
2021/03/23 08:29:56;;;;;;;1.35;0.65;;;;;;;7.90;48.43;92956.69;5029358;28;20655;-49
2021/03/23 08:32:52;;;;;;;1.10;1.08;;;;;;;7.40;47.32;92963.56;5029365;28;20026;-53
2021/03/23 08:35:28;;;;;;;1.05;0.88;;;;;;;7.72;47.39;92958.44;5021780;28;20120;-54
2021/03/23 08:38:12;;;;;;;1.42;1.35;;;;;;;8.21;46.72;92961.75;5029345;28;20033;-48
2021/03/23 08:40:53;;;;;;;0.88;0.55;;;;;;;8.49;45.68;92955.44;5032090;28;20028;-48
2021/03/23 08:43:42;;;;;;;0.65;0.65;;;;;;;10.01;43.11;92970.59;5034818;28;20425;-48
2021/03/23 08:46:28;;;;;;;0.63;0.63;;;;;;;10.34;43.28;92966.66;5029253;28;20026;-50
2021/03/23 08:49:00;;;;;;;0.85;0.85;;;;;;;10.14;43.12;92964.88;5028054;28;20616;-46
2021/03/23 08:51:27;;;;;;;2.22;2.03;;;;;;;9.67;42.53;92973.81;5029299;28;20026;-49
2021/03/23 08:54:01;;;;;;;6.63;1.67;;;;;;;9.26;42.90;92974.25;5027925;28;20060;-47
2021/03/23 08:56:41;;;;;;;1.38;0.90;;;;;;;8.52;45.04;92973.63;5028961;28;20029;-44
2021/03/23 08:59:47;;;;;;;1.70;0.73;;;;;;;7.91;46.82;92974.66;5036456;28;20057;-49
2021/03/23 09:02:15;;;;;;;1.55;0.65;;;;;;;7.52;48.59;92970.97;5059947;28;20114;-47
2021/03/23 09:04:42;;;;;;;0.32;0.32;;;;;;;7.29;48.37;92975.59;5059002;28;20029;-45
2021/03/23 09:07:18;;;;;;;0.77;0.77;;;;;;;6.97;48.84;92966.94;5037015;28;20063;-45
2021/03/23 09:09:49;;;;;;;0.30;0.30;;;;;;;6.62;49.29;92971.03;5038330;28;20021;-47
2021/03/23 09:12:43;;;;;;;0.45;0.45;;;;;;;6.34;50.16;92979.16;5039504;28;20500;-47
2021/03/23 09:15:09;;;;;;;0.35;0.35;;;;;;;6.23;51.80;92973.91;5034292;28;20033;-45
2021/03/23 09:17:48;;;;;;;0.35;0.35;;;;;;;5.64;52.28;92975.38;5037126;28;20017;-47
2021/03/23 09:20:36;;;;;;;0.80;0.80;;;;;;;5.59;53.51;92976.22;5036217;28;20025;-46
2021/03/23 09:23:24;;;;;;;0.40;0.40;;;;;;;5.44;54.11;92981.47;5038197;28;20037;-45
2021/03/23 09:26:02;;;;;;;9.50;0.80;;;;;;;5.03;56.26;92978.50;5042207;28;20031;-50
2021/03/23 09:28:31;;;;;;;1.38;1.30;;;;;;;4.95;56.16;92981.13;5037497;28;20084;-45
2021/03/23 09:31:04;;;;;;;0.70;0.70;;;;;;;4.83;54.64;92976.38;5028735;28;20034;-46
2021/03/23 09:33:34;;;;;;;1.60;1.50;;;;;;;4.83;55.96;92977.09;5029606;28;20108;-47
2021/03/23 09:36:10;;;;;;;0.70;0.68;;;;;;;4.95;55.74;92977.66;5048260;28;20527;-48
2021/03/23 09:38:39;;;;;;;0.20;0.20;;;;;;;5.16;55.00;92981.25;5047713;28;20112;-48
2021/03/23 09:41:06;;;;;;;;;;;;;;;5.19;55.56;92983.69;5038814;28;20500;-47
2021/03/23 09:43:39;;;;;;;1.38;1.33;;;;;;;5.06;54.41;92977.47;5037372;28;19931;-49
2021/03/23 09:46:15;;;;;;;0.68;0.68;;;;;;;5.15;54.75;92980.53;5036171;28;20643;-49
2021/03/23 09:48:52;;;;;;;0.25;0.25;;;;;;;5.10;53.79;92981.38;5038632;28;20029;-48
2021/03/23 09:51:58;;;;;;;0.70;0.70;;;;;;;4.94;53.27;92987.88;5044096;28;20113;-46
2021/03/23 09:54:32;;;;;;;0.55;0.55;;;;;;;4.92;55.26;92984.91;5046884;28;20021;-46
2021/03/23 09:57:01;;;;;;;1.85;1.05;;;;;;;4.76;55.22;92987.94;5046262;28;20124;-46
2021/03/23 09:59:29;;;;;;;1.95;1.45;;;;;;;4.95;54.47;92983.13;5047682;28;20045;-47
2021/03/23 10:01:58;;;;;;;0.50;0.50;;;;;;;4.87;54.99;92987.75;5047699;28;20037;-46
2021/03/23 10:04:28;;;;;;;0.85;0.85;;;;;;;5.08;56.13;92988.63;5047978;28;20040;-45
2021/03/23 10:06:55;;;;;;;0.32;0.32;;;;;;;5.27;55.75;92992.75;5048165;28;20056;-47
2021/03/23 10:09:27;;;;;;;0.30;0.30;;;;;;;5.34;54.59;92994.13;5047748;28;20523;-51
2021/03/23 10:11:53;;;;;;;0.88;0.88;;;;;;;5.26;55.09;92990.56;5047617;28;20053;-45
2021/03/23 10:14:28;;;;;;;0.85;0.85;;;;;;;5.45;53.99;92995.91;5047461;28;20690;-47
2021/03/23 10:17:20;;;;;;;0.88;0.63;;;;;;;5.68;52.20;92997.69;5047178;28;20037;-47
2021/03/23 10:20:00;;;;;;;0.80;0.50;;;;;;;5.74;54.31;92992.84;5041031;28;20469;-48
2021/03/23 10:22:27;;;;;;;1.65;1.55;;;;;;;5.84;53.67;92987.69;5045473;28;20508;-47
2021/03/23 10:24:54;;;;;;;0.40;0.40;;;;;;;6.22;51.01;92980.66;5033451;28;20429;-44
2021/03/23 10:27:27;;;;;;;0.45;0.45;;;;;;;6.33;49.80;92983.16;5037802;28;20033;-45
2021/03/23 10:29:55;;;;;;;0.45;0.45;;;;;;;6.77;51.43;92984.88;5036729;28;20025;-45
2021/03/23 10:32:32;;;;;;;1.05;0.95;;;;;;;6.85;48.79;92985.66;5036825;28;20025;-45
2021/03/23 10:35:13;;;;;;;0.80;0.80;;;;;;;7.11;47.31;92973.06;5027878;28;20025;-45
2021/03/23 10:37:39;;;;;;;1.23;0.75;;;;;;;7.30;45.40;92988.03;5027722;28;20092;-46
2021/03/23 10:40:31;;;;;;;0.40;0.40;;;;;;;7.49;44.42;92988.53;5041634;28;20104;-47
2021/03/23 10:42:57;;;;;;;0.45;0.45;;;;;;;7.34;44.16;92980.19;5043293;28;20037;-46
2021/03/23 10:45:37;;;;;;;0.88;0.43;;;;;;;6.71;41.60;92983.53;5037363;28;20090;-46
2021/03/23 10:48:15;;;;;;;0.22;0.22;;;;;;;6.24;43.48;92989.06;5025842;28;20033;-44
2021/03/23 10:50:42;;;;;;;0.55;0.55;;;;;;;6.08;44.22;92993.69;5026919;28;20037;-48
2021/03/23 10:53:09;;;;;;;0.52;0.40;;;;;;;6.46;45.79;92990.59;5027150;28;20409;-49
2021/03/23 10:55:39;;;;;;;0.60;0.60;;;;;;;6.86;47.69;92992.63;5027771;28;20025;-45
2021/03/23 10:58:16;;;;;;;0.52;0.52;;;;;;;6.95;48.06;92988.69;5025931;28;20089;-48
2021/03/23 11:00:43;;;;;;;0.77;0.77;;;;;;;6.69;46.90;92995.03;5027504;28;20033;-48
2021/03/23 11:03:18;;;;;;;0.40;0.40;;;;;;;6.46;48.56;92991.34;5025915;28;20113;-48
2021/03/23 11:05:50;;;;;;;0.93;0.60;;;;;;;6.38;49.27;92990.53;5027301;28;20116;-48
2021/03/23 11:08:16;;;;;;;0.45;0.45;;;;;;;6.31;50.81;92996.66;5027733;28;20034;-47
2021/03/23 11:10:42;;;;;;;1.25;1.05;;;;;;;6.32;50.45;92991.91;5041049;28;20099;-48
2021/03/23 11:13:11;;;;;;;1.00;1.00;;;;;;;6.07;51.46;92994.94;5034745;28;20037;-46
2021/03/23 11:15:45;;;;;;;1.15;0.93;;;;;;;6.17;52.19;92997.22;5038637;28;20526;-46
2021/03/23 11:18:17;;;;;;;1.25;1.20;;;;;;;6.03;51.56;92999.25;5047188;28;20103;-48
2021/03/23 11:20:43;;;;;;;0.65;0.65;;;;;;;6.17;51.57;92987.00;5026412;28;20438;-48
2021/03/23 11:23:43;;;;;;;1.20;1.20;;;;;;;6.46;52.26;92987.84;5026057;28;20096;-50
2021/03/23 11:26:13;;;;;;;1.80;1.65;;;;;;;6.80;50.46;92992.03;5026572;28;20035;-46
2021/03/23 11:28:39;;;;;;;0.55;0.55;;;;;;;6.95;49.11;92991.44;5026804;28;20037;-48
2021/03/23 11:31:06;;;;;;;0.45;0.45;;;;;;;6.44;51.22;92987.66;5028722;28;20693;-45
2021/03/23 11:33:32;;;;;;;0.55;0.50;;;;;;;6.81;50.47;92995.50;5032696;28;20104;-49
2021/03/23 11:35:58;;;;;;;0.82;0.82;;;;;;;6.65;50.75;92994.63;5036187;28;20037;-52
2021/03/23 11:38:24;;;;;;;4.38;0.90;;;;;;;6.27;51.88;92984.53;5031009;28;20474;-47
2021/03/23 11:40:53;;;;;;;1.80;1.35;;;;;;;6.34;50.54;92995.59;5035415;28;20037;-46
2021/03/23 11:43:25;;;;;;;2.30;0.85;;;;;;;6.67;50.36;92999.59;5028042;28;20091;-47
2021/03/23 11:45:53;;;;;;;0.50;0.50;;;;;;;6.64;50.77;92997.91;5029120;28;20041;-45
2021/03/23 11:48:20;;;;;;;3.65;3.05;;;;;;;6.74;49.76;92969.47;5036180;28;20029;-45
2021/03/23 11:50:49;;;;;;;1.52;1.42;;;;;;;6.92;49.28;92995.25;5035101;28;20523;-46
2021/03/23 11:53:15;;;;;;;5.85;2.50;;;;;;;7.34;47.92;92999.41;5030772;28;20021;-48
2021/03/23 11:55:44;;;;;;;1.92;1.75;;;;;;;7.37;48.67;92997.59;5038918;28;20505;-46
2021/03/23 11:58:10;;;;;;;0.90;0.90;;;;;;;7.49;48.74;92996.75;5038957;28;20417;-46